sensor_id;sensor_type;location;lat;lon;timestamp;pressure;altitude;pressure_sealevel;temperature;humidity
65557;BME280;52200;53.490;14.376;2022-12-07T00:00:28;101057.06;;;2.84;95.94
65557;BME280;52200;53.490;14.376;2022-12-07T00:02:53;101055.31;;;2.73;95.59
65557;BME280;52200;53.490;14.376;2022-12-07T00:05:19;101056.19;;;2.82;95.54
65557;BME280;52200;53.490;14.376;2022-12-07T00:07:44;101059.59;;;2.87;95.00
65557;BME280;52200;53.490;14.376;2022-12-07T00:10:10;101051.81;;;2.62;95.11
65557;BME280;52200;53.490;14.376;2022-12-07T00:12:35;101061.81;;;2.61;95.97
65557;BME280;52200;53.490;14.376;2022-12-07T00:15:00;101058.63;;;2.72;95.49
65557;BME280;52200;53.490;14.376;2022-12-07T00:17:26;101057.78;;;2.72;96.34
65557;BME280;52200;53.490;14.376;2022-12-07T00:19:51;101046.84;;;2.67;95.78
65557;BME280;52200;53.490;14.376;2022-12-07T00:22:17;101043.66;;;2.79;96.10
65557;BME280;52200;53.490;14.376;2022-12-07T00:24:42;101043.66;;;2.79;95.48
65557;BME280;52200;53.490;14.376;2022-12-07T00:27:08;101034.22;;;2.57;96.00
65557;BME280;52200;53.490;14.376;2022-12-07T00:29:33;101037.50;;;2.55;95.87
65557;BME280;52200;53.490;14.376;2022-12-07T00:31:59;101033.44;;;2.63;95.89
65557;BME280;52200;53.490;14.376;2022-12-07T00:34:24;101017.28;;;2.41;96.25
65557;BME280;52200;53.490;14.376;2022-12-07T00:36:50;101024.66;;;2.27;96.88
65557;BME280;52200;53.490;14.376;2022-12-07T00:39:16;101030.66;;;2.40;97.52
65557;BME280;52200;53.490;14.376;2022-12-07T00:41:42;101023.34;;;2.58;96.11
65557;BME280;52200;53.490;14.376;2022-12-07T00:44:07;101029.31;;;2.68;96.07
65557;BME280;52200;53.490;14.376;2022-12-07T00:46:33;101019.38;;;2.78;95.20
65557;BME280;52200;53.490;14.376;2022-12-07T00:48:58;101026.91;;;2.76;94.26
65557;BME280;52200;53.490;14.376;2022-12-07T00:51:25;101021.03;;;2.77;94.03
65557;BME280;52200;53.490;14.376;2022-12-07T00:53:51;101021.03;;;2.77;94.15
65557;BME280;52200;53.490;14.376;2022-12-07T00:56:23;101019.25;;;2.67;94.98
65557;BME280;52200;53.490;14.376;2022-12-07T00:58:53;101016.56;;;2.48;94.69
65557;BME280;52200;53.490;14.376;2022-12-07T01:01:19;101022.66;;;2.72;94.40
65557;BME280;52200;53.490;14.376;2022-12-07T01:03:44;101019.38;;;2.76;94.44
65557;BME280;52200;53.490;14.376;2022-12-07T01:06:14;101009.91;;;2.53;94.86
65557;BME280;52200;53.490;14.376;2022-12-07T01:08:39;101010.81;;;2.58;94.41
65557;BME280;52200;53.490;14.376;2022-12-07T01:11:07;101010.84;;;2.63;94.89
65557;BME280;52200;53.490;14.376;2022-12-07T01:13:34;101007.47;;;2.56;94.63
65557;BME280;52200;53.490;14.376;2022-12-07T01:16:01;101009.28;;;2.73;94.64
65557;BME280;52200;53.490;14.376;2022-12-07T01:18:28;101010.03;;;2.64;93.95
65557;BME280;52200;53.490;14.376;2022-12-07T01:20:59;101007.72;;;2.84;93.08
65557;BME280;52200;53.490;14.376;2022-12-07T01:23:25;101001.81;;;2.78;93.02
65557;BME280;52200;53.490;14.376;2022-12-07T01:25:55;100994.88;;;2.52;93.52
65557;BME280;52200;53.490;14.376;2022-12-07T01:28:21;101001.69;;;2.65;93.26
65557;BME280;52200;53.490;14.376;2022-12-07T01:31:04;100994.06;;;2.54;92.84
65557;BME280;52200;53.490;14.376;2022-12-07T01:33:33;100994.75;;;2.42;93.02
65557;BME280;52200;53.490;14.376;2022-12-07T01:36:07;100993.97;;;2.48;92.61
65557;BME280;52200;53.490;14.376;2022-12-07T01:38:33;100990.47;;;2.34;93.00
65557;BME280;52200;53.490;14.376;2022-12-07T01:41:00;100995.41;;;2.28;93.82
65557;BME280;52200;53.490;14.376;2022-12-07T01:43:27;100983.81;;;2.37;94.15
65557;BME280;52200;53.490;14.376;2022-12-07T01:45:54;100980.44;;;2.32;93.70
65557;BME280;52200;53.490;14.376;2022-12-07T01:48:34;100982.25;;;2.44;93.03
65557;BME280;52200;53.490;14.376;2022-12-07T01:51:05;100974.69;;;2.41;93.40
65557;BME280;52200;53.490;14.376;2022-12-07T01:53:35;100969.66;;;2.41;93.39
65557;BME280;52200;53.490;14.376;2022-12-07T01:56:01;100967.00;;;2.25;92.98
65557;BME280;52200;53.490;14.376;2022-12-07T01:58:28;100970.31;;;2.24;94.34
65557;BME280;52200;53.490;14.376;2022-12-07T02:00:53;100965.31;;;2.26;94.17
65557;BME280;52200;53.490;14.376;2022-12-07T02:03:24;100965.31;;;2.23;93.68
65557;BME280;52200;53.490;14.376;2022-12-07T02:05:53;100973.50;;;2.13;94.15
65557;BME280;52200;53.490;14.376;2022-12-07T02:08:19;100968.63;;;2.20;94.34
65557;BME280;52200;53.490;14.376;2022-12-07T02:10:45;100969.53;;;2.30;94.24
65557;BME280;52200;53.490;14.376;2022-12-07T02:13:20;100972.69;;;2.11;93.84
65557;BME280;52200;53.490;14.376;2022-12-07T02:18:56;100963.22;;;2.63;92.36
65557;BME280;52200;53.490;14.376;2022-12-07T02:21:46;100965.59;;;2.52;92.67
65557;BME280;52200;53.490;14.376;2022-12-07T02:25:21;100956.38;;;2.50;92.16
65557;BME280;52200;53.490;14.376;2022-12-07T02:30:06;100943.78;;;2.42;92.58
65557;BME280;52200;53.490;14.376;2022-12-07T02:35:28;100932.25;;;2.60;91.93
65557;BME280;52200;53.490;14.376;2022-12-07T02:40:38;100927.84;;;2.35;92.04
65557;BME280;52200;53.490;14.376;2022-12-07T02:43:13;100926.22;;;2.44;91.95
65557;BME280;52200;53.490;14.376;2022-12-07T02:45:41;100920.41;;;2.46;91.60
65557;BME280;52200;53.490;14.376;2022-12-07T02:48:08;100909.91;;;2.03;91.27
65557;BME280;52200;53.490;14.376;2022-12-07T02:50:35;100914.13;;;2.05;92.46
65557;BME280;52200;53.490;14.376;2022-12-07T02:53:00;100915.94;;;2.16;92.23
65557;BME280;52200;53.490;14.376;2022-12-07T02:55:36;100910.66;;;1.92;92.57
65557;BME280;52200;53.490;14.376;2022-12-07T02:58:14;100909.91;;;2.03;91.77
65557;BME280;52200;53.490;14.376;2022-12-07T03:00:58;100905.69;;;1.96;92.39
65557;BME280;52200;53.490;14.376;2022-12-07T03:03:29;100905.84;;;2.11;91.82
65557;BME280;52200;53.490;14.376;2022-12-07T03:06:31;100904.69;;;1.84;91.89
65557;BME280;52200;53.490;14.376;2022-12-07T03:09:04;100902.31;;;1.95;92.06
65557;BME280;52200;53.490;14.376;2022-12-07T03:11:46;100897.38;;;1.98;91.91
65557;BME280;52200;53.490;14.376;2022-12-07T03:14:24;100899.84;;;1.97;92.10
65557;BME280;52200;53.490;14.376;2022-12-07T03:16:58;100888.94;;;1.93;91.70
65557;BME280;52200;53.490;14.376;2022-12-07T03:19:27;100889.03;;;2.01;91.77
65557;BME280;52200;53.490;14.376;2022-12-07T03:21:56;100889.78;;;1.93;91.97
65557;BME280;52200;53.490;14.376;2022-12-07T03:24:27;100883.97;;;1.95;93.02
65557;BME280;52200;53.490;14.376;2022-12-07T03:27:07;100878.69;;;1.74;93.02
65557;BME280;52200;53.490;14.376;2022-12-07T03:29:37;100876.25;;;1.79;93.81
65557;BME280;52200;53.490;14.376;2022-12-07T03:35:00;100873.66;;;1.70;93.77
65557;BME280;52200;53.490;14.376;2022-12-07T03:37:36;100868.13;;;1.99;93.15
65557;BME280;52200;53.490;14.376;2022-12-07T03:40:19;100868.97;;;1.99;93.15
65557;BME280;52200;53.490;14.376;2022-12-07T03:42:48;100862.22;;;1.92;92.86
65557;BME280;52200;53.490;14.376;2022-12-07T03:45:15;100860.50;;;1.88;93.36
65557;BME280;52200;53.490;14.376;2022-12-07T03:48:02;100860.53;;;1.89;92.42
65557;BME280;52200;53.490;14.376;2022-12-07T03:51:18;100854.59;;;1.81;92.51
65557;BME280;52200;53.490;14.376;2022-12-07T03:53:29;100850.59;;;1.97;92.78
65557;BME280;52200;53.490;14.376;2022-12-07T03:55:57;100850.31;;;1.72;91.78
65557;BME280;52200;53.490;14.376;2022-12-07T03:58:23;100847.88;;;1.80;92.29
65557;BME280;52200;53.490;14.376;2022-12-07T04:00:50;100843.81;;;1.90;91.54
65557;BME280;52200;53.490;14.376;2022-12-07T04:03:16;100841.25;;;1.82;91.69
65557;BME280;52200;53.490;14.376;2022-12-07T04:05:42;100834.41;;;1.69;92.08
65557;BME280;52200;53.490;14.376;2022-12-07T04:08:09;100835.41;;;1.83;91.51
65557;BME280;52200;53.490;14.376;2022-12-07T04:10:34;100833.72;;;1.84;91.50
65557;BME280;52200;53.490;14.376;2022-12-07T04:13:00;100828.66;;;1.79;90.55
65557;BME280;52200;53.490;14.376;2022-12-07T04:15:26;100832.72;;;1.68;91.42
65557;BME280;52200;53.490;14.376;2022-12-07T04:17:52;100827.69;;;1.65;91.76
65557;BME280;52200;53.490;14.376;2022-12-07T04:20:17;100819.25;;;1.59;91.52
65557;BME280;52200;53.490;14.376;2022-12-07T04:22:43;100816.81;;;1.63;92.06
65557;BME280;52200;53.490;14.376;2022-12-07T04:25:08;100814.97;;;1.46;92.33
65557;BME280;52200;53.490;14.376;2022-12-07T04:27:34;100813.88;;;1.28;92.70
65557;BME280;52200;53.490;14.376;2022-12-07T04:29:59;100803.38;;;1.56;92.14
65557;BME280;52200;53.490;14.376;2022-12-07T04:32:25;100799.81;;;1.38;93.34
65557;BME280;52200;53.490;14.376;2022-12-07T04:34:50;100799.22;;;1.59;92.74
65557;BME280;52200;53.490;14.376;2022-12-07T04:37:16;100791.97;;;1.84;91.49
65557;BME280;52200;53.490;14.376;2022-12-07T04:39:43;100794.53;;;1.87;91.02
65557;BME280;52200;53.490;14.376;2022-12-07T04:42:10;100793.53;;;1.73;91.65
65557;BME280;52200;53.490;14.376;2022-12-07T04:44:36;100796.78;;;1.63;91.54
65557;BME280;52200;53.490;14.376;2022-12-07T04:47:01;100785.97;;;1.67;92.28
65557;BME280;52200;53.490;14.376;2022-12-07T04:49:27;100791.91;;;1.76;92.26
65557;BME280;52200;53.490;14.376;2022-12-07T04:51:52;100787.00;;;1.86;91.54
65557;BME280;52200;53.490;14.376;2022-12-07T04:54:19;100787.94;;;1.96;91.60
65557;BME280;52200;53.490;14.376;2022-12-07T04:56:45;100795.41;;;1.91;90.37
65557;BME280;52200;53.490;14.376;2022-12-07T04:59:11;100792.72;;;1.71;90.49
65557;BME280;52200;53.490;14.376;2022-12-07T05:01:37;100790.50;;;2.02;90.75
65557;BME280;52200;53.490;14.376;2022-12-07T05:04:03;100781.97;;;1.83;89.64
65557;BME280;52200;53.490;14.376;2022-12-07T05:06:28;100778.03;;;2.08;89.25
65557;BME280;52200;53.490;14.376;2022-12-07T05:08:54;100780.50;;;2.03;89.99
65557;BME280;52200;53.490;14.376;2022-12-07T05:11:20;100774.78;;;2.18;89.55
65557;BME280;52200;53.490;14.376;2022-12-07T05:16:31;100766.38;;;2.13;88.72
65557;BME280;52200;53.490;14.376;2022-12-07T05:18:56;100769.72;;;2.12;89.16
65557;BME280;52200;53.490;14.376;2022-12-07T05:21:22;100762.22;;;2.15;89.22
65557;BME280;52200;53.490;14.376;2022-12-07T05:23:48;100765.56;;;2.14;88.32
65557;BME280;52200;53.490;14.376;2022-12-07T05:26:13;100755.56;;;2.17;88.69
65557;BME280;52200;53.490;14.376;2022-12-07T05:28:39;100751.19;;;1.98;88.99
65557;BME280;52200;53.490;14.376;2022-12-07T05:31:04;100757.97;;;2.05;88.66
65557;BME280;52200;53.490;14.376;2022-12-07T05:33:30;100751.38;;;2.18;87.94
65557;BME280;52200;53.490;14.376;2022-12-07T05:35:55;100748.91;;;2.22;88.47
65557;BME280;52200;53.490;14.376;2022-12-07T05:38:21;100748.91;;;2.22;87.83
65557;BME280;52200;53.490;14.376;2022-12-07T05:40:46;100745.41;;;2.02;88.82
65557;BME280;52200;53.490;14.376;2022-12-07T05:43:12;100745.09;;;1.68;89.43
65557;BME280;52200;53.490;14.376;2022-12-07T05:45:37;100741.13;;;1.90;88.90
65557;BME280;52200;53.490;14.376;2022-12-07T05:48:03;100732.84;;;1.99;89.36
65557;BME280;52200;53.490;14.376;2022-12-07T05:50:28;100736.81;;;1.78;89.43
65557;BME280;52200;53.490;14.376;2022-12-07T05:52:54;100734.47;;;1.93;89.72
65557;BME280;52200;53.490;14.376;2022-12-07T05:55:19;100730.22;;;1.83;90.32
65557;BME280;52200;53.490;14.376;2022-12-07T05:57:45;100722.78;;;1.91;89.88
65557;BME280;52200;53.490;14.376;2022-12-07T06:00:31;100721.06;;;1.88;89.42
65557;BME280;52200;53.490;14.376;2022-12-07T06:02:57;100716.03;;;1.85;89.86
65557;BME280;52200;53.490;14.376;2022-12-07T06:05:22;100711.88;;;1.89;89.78
65557;BME280;52200;53.490;14.376;2022-12-07T06:07:48;100709.69;;;1.35;90.96
65557;BME280;52200;53.490;14.376;2022-12-07T06:10:13;100708.22;;;1.53;91.57
65557;BME280;52200;53.490;14.376;2022-12-07T06:12:39;100705.38;;;1.20;91.92
65557;BME280;52200;53.490;14.376;2022-12-07T06:15:08;100700.09;;;0.99;92.21
65557;BME280;52200;53.490;14.376;2022-12-07T06:17:33;100694.75;;;1.40;92.98
65557;BME280;52200;53.490;14.376;2022-12-07T06:19:59;100691.25;;;1.24;92.87
65557;BME280;52200;53.490;14.376;2022-12-07T06:22:24;100684.00;;;1.50;92.73
65557;BME280;52200;53.490;14.376;2022-12-07T06:24:50;100698.59;;;1.11;92.60
65557;BME280;52200;53.490;14.376;2022-12-07T06:27:15;100700.47;;;1.29;93.59
65557;BME280;52200;53.490;14.376;2022-12-07T06:29:41;100698.03;;;1.37;93.04
65557;BME280;52200;53.490;14.376;2022-12-07T06:32:06;100695.59;;;1.42;92.68
65557;BME280;52200;53.490;14.376;2022-12-07T06:34:32;100683.38;;;0.94;93.29
65557;BME280;52200;53.490;14.376;2022-12-07T06:36:57;100690.38;;;1.23;94.19
65557;BME280;52200;53.490;14.376;2022-12-07T06:39:27;100687.94;;;1.31;93.94
65557;BME280;52200;53.490;14.376;2022-12-07T06:41:53;100683.19;;;1.53;92.61
65557;BME280;52200;53.490;14.376;2022-12-07T06:44:20;100678.41;;;1.77;91.46
65557;BME280;52200;53.490;14.376;2022-12-07T06:46:47;100680.69;;;1.54;91.85
65557;BME280;52200;53.490;14.376;2022-12-07T06:49:12;100679.84;;;1.54;92.38
65557;BME280;52200;53.490;14.376;2022-12-07T06:51:38;100680.78;;;1.64;91.95
65557;BME280;52200;53.490;14.376;2022-12-07T06:54:10;100687.44;;;1.61;92.25
65557;BME280;52200;53.490;14.376;2022-12-07T06:56:36;100680.84;;;1.70;91.47
65557;BME280;52200;53.490;14.376;2022-12-07T06:59:02;100685.88;;;1.74;90.97
65557;BME280;52200;53.490;14.376;2022-12-07T07:01:28;100673.34;;;1.70;91.49
65557;BME280;52200;53.490;14.376;2022-12-07T07:03:53;100672.63;;;1.83;90.60
65557;BME280;52200;53.490;14.376;2022-12-07T07:06:19;100678.22;;;1.59;92.03
65557;BME280;52200;53.490;14.376;2022-12-07T07:08:45;100674.09;;;1.66;92.15
65557;BME280;52200;53.490;14.376;2022-12-07T07:11:10;100677.50;;;1.71;90.67
65557;BME280;52200;53.490;14.376;2022-12-07T07:13:36;100671.59;;;1.61;91.48
65557;BME280;52200;53.490;14.376;2022-12-07T07:16:02;100679.03;;;1.55;92.22
65557;BME280;52200;53.490;14.376;2022-12-07T07:18:27;100680.75;;;1.62;92.21
65557;BME280;52200;53.490;14.376;2022-12-07T07:20:53;100673.38;;;1.76;91.88
65557;BME280;52200;53.490;14.376;2022-12-07T07:23:20;100667.56;;;1.79;91.14
65557;BME280;52200;53.490;14.376;2022-12-07T07:25:46;100662.59;;;1.83;90.82
65557;BME280;52200;53.490;14.376;2022-12-07T07:28:12;100662.59;;;1.83;90.77
65557;BME280;52200;53.490;14.376;2022-12-07T07:30:37;100665.06;;;1.82;91.80
65557;BME280;52200;53.490;14.376;2022-12-07T07:33:04;100659.28;;;1.90;91.89
65557;BME280;52200;53.490;14.376;2022-12-07T07:35:31;100666.03;;;1.95;91.31
65557;BME280;52200;53.490;14.376;2022-12-07T07:37:57;100659.41;;;2.06;90.68
65557;BME280;52200;53.490;14.376;2022-12-07T07:40:23;100669.97;;;1.66;91.50
65557;BME280;52200;53.490;14.376;2022-12-07T07:42:50;100673.25;;;1.62;92.74
65557;BME280;52200;53.490;14.376;2022-12-07T07:45:16;100670.94;;;1.82;92.09
65557;BME280;52200;53.490;14.376;2022-12-07T07:47:41;100670.78;;;1.65;91.73
65557;BME280;52200;53.490;14.376;2022-12-07T07:50:07;100680.91;;;1.79;91.67
65557;BME280;52200;53.490;14.376;2022-12-07T07:52:32;100666.84;;;1.95;91.25
65557;BME280;52200;53.490;14.376;2022-12-07T07:54:58;100671.13;;;2.08;90.96
65557;BME280;52200;53.490;14.376;2022-12-07T07:57:24;100676.09;;;2.01;90.64
65557;BME280;52200;53.490;14.376;2022-12-07T07:59:49;100682.59;;;1.77;91.69
65557;BME280;52200;53.490;14.376;2022-12-07T08:02:17;100672.56;;;1.80;91.90
65557;BME280;52200;53.490;14.376;2022-12-07T08:04:44;100676.09;;;2.04;90.81
65557;BME280;52200;53.490;14.376;2022-12-07T08:07:10;100669.25;;;1.83;92.37
65557;BME280;52200;53.490;14.376;2022-12-07T08:09:36;100665.13;;;1.86;92.45
65557;BME280;52200;53.490;14.376;2022-12-07T08:12:01;100664.28;;;1.90;92.54
65557;BME280;52200;53.490;14.376;2022-12-07T08:14:27;100674.19;;;1.73;93.31
65557;BME280;52200;53.490;14.376;2022-12-07T08:16:54;100678.13;;;1.48;94.67
65557;BME280;52200;53.490;14.376;2022-12-07T08:19:19;100672.34;;;1.55;94.19
65557;BME280;52200;53.490;14.376;2022-12-07T08:21:45;100671.34;;;1.38;94.66
65557;BME280;52200;53.490;14.376;2022-12-07T08:24:10;100673.03;;;1.40;95.80
65557;BME280;52200;53.490;14.376;2022-12-07T08:26:36;100678.19;;;1.53;95.47
65557;BME280;52200;53.490;14.376;2022-12-07T08:29:01;100673.16;;;1.51;95.68
65557;BME280;52200;53.490;14.376;2022-12-07T08:31:27;100675.84;;;1.70;95.11
65557;BME280;52200;53.490;14.376;2022-12-07T08:33:53;100674.81;;;1.51;95.46
65557;BME280;52200;53.490;14.376;2022-12-07T08:36:19;100669.91;;;1.60;95.97
65557;BME280;52200;53.490;14.376;2022-12-07T08:38:44;100669.97;;;1.66;95.67
65557;BME280;52200;53.490;14.376;2022-12-07T08:41:10;100674.31;;;1.90;94.76
65557;BME280;52200;53.490;14.376;2022-12-07T08:43:36;100675.63;;;1.48;95.86
65557;BME280;52200;53.490;14.376;2022-12-07T08:49:13;100663.34;;;1.74;95.19
65557;BME280;52200;53.490;14.376;2022-12-07T08:51:41;100665.94;;;1.85;95.45
65557;BME280;52200;53.490;14.376;2022-12-07T08:54:10;100668.34;;;1.74;95.64
65557;BME280;52200;53.490;14.376;2022-12-07T08:56:36;100659.31;;;1.93;94.93
65557;BME280;52200;53.490;14.376;2022-12-07T08:59:03;100659.28;;;1.90;94.71
65557;BME280;52200;53.490;14.376;2022-12-07T09:01:29;100656.19;;;2.19;94.87
65557;BME280;52200;53.490;14.376;2022-12-07T09:03:55;100663.03;;;2.48;92.81
65557;BME280;52200;53.490;14.376;2022-12-07T09:06:20;100663.00;;;2.39;92.94
65557;BME280;52200;53.490;14.376;2022-12-07T09:08:47;100662.16;;;2.41;92.72
65557;BME280;52200;53.490;14.376;2022-12-07T09:11:15;100650.41;;;2.36;92.78
65557;BME280;52200;53.490;14.376;2022-12-07T09:13:40;100654.72;;;2.55;92.90
65557;BME280;52200;53.490;14.376;2022-12-07T09:16:06;100657.31;;;2.72;92.73
65557;BME280;52200;53.490;14.376;2022-12-07T09:18:31;100651.53;;;2.97;91.91
65557;BME280;52200;53.490;14.376;2022-12-07T09:20:57;100660.63;;;2.71;90.23
65557;BME280;52200;53.490;14.376;2022-12-07T09:23:23;100660.56;;;2.51;90.67
65557;BME280;52200;53.490;14.376;2022-12-07T09:25:48;100655.53;;;2.51;90.54
65557;BME280;52200;53.490;14.376;2022-12-07T09:28:14;100661.34;;;2.47;91.25
65557;BME280;52200;53.490;14.376;2022-12-07T09:30:46;100645.41;;;2.36;91.47
65557;BME280;52200;53.490;14.376;2022-12-07T09:33:12;100655.31;;;2.19;91.43
65557;BME280;52200;53.490;14.376;2022-12-07T09:35:37;100660.09;;;1.83;91.97
65557;BME280;52200;53.490;14.376;2022-12-07T09:38:03;100653.50;;;1.96;91.43
65557;BME280;52200;53.490;14.376;2022-12-07T09:40:28;100657.56;;;1.80;92.36
65557;BME280;52200;53.490;14.376;2022-12-07T09:42:55;100658.25;;;1.65;92.49
65557;BME280;52200;53.490;14.376;2022-12-07T09:45:24;100669.03;;;1.55;93.72
65557;BME280;52200;53.490;14.376;2022-12-07T09:47:50;100665.38;;;1.25;94.59
65557;BME280;52200;53.490;14.376;2022-12-07T09:50:20;100671.41;;;1.42;95.15
65557;BME280;52200;53.490;14.376;2022-12-07T09:52:47;100668.91;;;1.44;93.65
65557;BME280;52200;53.490;14.376;2022-12-07T09:55:18;100658.19;;;1.57;94.42
65557;BME280;52200;53.490;14.376;2022-12-07T09:57:45;100659.06;;;1.63;93.08
65557;BME280;52200;53.490;14.376;2022-12-07T10:00:22;100658.47;;;1.88;93.25
65557;BME280;52200;53.490;14.376;2022-12-07T10:05:44;100649.72;;;2.62;91.81
65557;BME280;52200;53.490;14.376;2022-12-07T10:08:11;100651.31;;;2.47;90.48
65557;BME280;52200;53.490;14.376;2022-12-07T10:10:37;100660.22;;;2.02;92.80
65557;BME280;52200;53.490;14.376;2022-12-07T10:13:07;100657.88;;;2.23;92.29
65557;BME280;52200;53.490;14.376;2022-12-07T10:15:53;100667.66;;;1.92;92.73
65557;BME280;52200;53.490;14.376;2022-12-07T10:20:48;100672.69;;;1.92;94.43
65557;BME280;52200;53.490;14.376;2022-12-07T10:23:16;100669.31;;;1.90;94.23
65557;BME280;52200;53.490;14.376;2022-12-07T10:25:42;100657.72;;;2.02;93.48
65557;BME280;52200;53.490;14.376;2022-12-07T10:31:18;100661.97;;;2.11;93.17
65557;BME280;52200;53.490;14.376;2022-12-07T10:33:40;100662.66;;;1.91;93.83
65557;BME280;52200;53.490;14.376;2022-12-07T10:39:11;100660.09;;;1.88;94.54
65557;BME280;52200;53.490;14.376;2022-12-07T10:41:57;100646.03;;;2.04;93.85
65557;BME280;52200;53.490;14.376;2022-12-07T10:44:41;100652.06;;;2.32;93.69
65557;BME280;52200;53.490;14.376;2022-12-07T10:55:16;100639.78;;;2.80;91.20
65557;BME280;52200;53.490;14.376;2022-12-07T11:00:24;100640.56;;;2.64;91.23
65557;BME280;52200;53.490;14.376;2022-12-07T11:10:31;100634.47;;;2.24;92.51
65557;BME280;52200;53.490;14.376;2022-12-07T11:13:23;100635.44;;;2.48;92.71
65557;BME280;52200;53.490;14.376;2022-12-07T11:22:01;100637.94;;;2.48;92.91
65557;BME280;52200;53.490;14.376;2022-12-07T11:30:41;100628.00;;;2.65;93.50
65557;BME280;52200;53.490;14.376;2022-12-07T11:33:27;100626.28;;;2.60;92.52
65557;BME280;52200;53.490;14.376;2022-12-07T11:38:51;100624.69;;;2.74;92.42
65557;BME280;52200;53.490;14.376;2022-12-07T11:41:24;100616.28;;;2.66;91.97
65557;BME280;52200;53.490;14.376;2022-12-07T11:43:59;100623.97;;;2.98;92.10
65557;BME280;52200;53.490;14.376;2022-12-07T11:46:41;100623.06;;;2.85;91.27
65557;BME280;52200;53.490;14.376;2022-12-07T11:49:23;100624.75;;;2.96;90.81
65557;BME280;52200;53.490;14.376;2022-12-07T11:51:56;100624.69;;;2.77;91.10
65557;BME280;52200;53.490;14.376;2022-12-07T11:54:27;100623.88;;;2.73;90.71
65557;BME280;52200;53.490;14.376;2022-12-07T11:56:56;100618.91;;;2.95;90.43
65557;BME280;52200;53.490;14.376;2022-12-07T11:59:36;100620.56;;;2.87;89.04
65557;BME280;52200;53.490;14.376;2022-12-07T12:02:26;100622.94;;;2.51;90.49
65557;BME280;52200;53.490;14.376;2022-12-07T12:04:54;100623.69;;;2.39;90.68
65557;BME280;52200;53.490;14.376;2022-12-07T12:07:23;100618.66;;;2.35;91.50
65557;BME280;52200;53.490;14.376;2022-12-07T12:12:42;100627.81;;;2.30;92.46
65557;BME280;52200;53.490;14.376;2022-12-07T12:20:43;100612.09;;;2.55;89.40
65557;BME280;52200;53.490;14.376;2022-12-07T12:23:20;100612.06;;;2.52;89.88
65557;BME280;52200;53.490;14.376;2022-12-07T12:25:49;100614.56;;;2.52;88.62
65557;BME280;52200;53.490;14.376;2022-12-07T12:28:27;100599.59;;;2.69;88.26
65557;BME280;52200;53.490;14.376;2022-12-07T12:33:47;100596.38;;;3.06;85.28
65557;BME280;52200;53.490;14.376;2022-12-07T12:39:15;100594.66;;;2.96;84.31
65557;BME280;52200;53.490;14.376;2022-12-07T12:47:03;100599.63;;;2.83;84.25
65557;BME280;52200;53.490;14.376;2022-12-07T12:49:38;100599.53;;;2.58;85.00
65557;BME280;52200;53.490;14.376;2022-12-07T12:54:59;100591.25;;;2.78;84.34
65557;BME280;52200;53.490;14.376;2022-12-07T12:57:30;100591.16;;;2.47;85.50
65557;BME280;52200;53.490;14.376;2022-12-07T12:59:58;100587.06;;;2.69;85.03
65557;BME280;52200;53.490;14.376;2022-12-07T13:15:40;100595.25;;;2.31;87.51
65557;BME280;52200;53.490;14.376;2022-12-07T13:20:55;100587.72;;;2.30;85.65
65557;BME280;52200;53.490;14.376;2022-12-07T13:23:24;100584.34;;;2.24;86.85
65557;BME280;52200;53.490;14.376;2022-12-07T13:26:12;100591.00;;;2.16;85.09
65557;BME280;52200;53.490;14.376;2022-12-07T13:31:16;100589.22;;;2.00;84.14
65557;BME280;52200;53.490;14.376;2022-12-07T13:33:45;100590.66;;;1.64;84.55
65557;BME280;52200;53.490;14.376;2022-12-07T13:36:19;100597.41;;;1.71;84.91
65557;BME280;52200;53.490;14.376;2022-12-07T13:38:50;100599.91;;;1.71;83.71
65557;BME280;52200;53.490;14.376;2022-12-07T13:41:17;100594.06;;;1.78;84.38
65557;BME280;52200;53.490;14.376;2022-12-07T13:44:16;100581.47;;;1.63;84.25
65557;BME280;52200;53.490;14.376;2022-12-07T13:49:23;100597.25;;;1.55;84.31
65557;BME280;52200;53.490;14.376;2022-12-07T13:51:49;100598.50;;;1.10;85.40
65557;BME280;52200;53.490;14.376;2022-12-07T13:54:16;100591.16;;;1.28;85.94
65557;BME280;52200;53.490;14.376;2022-12-07T13:56:42;100590.91;;;0.99;85.39
65557;BME280;52200;53.490;14.376;2022-12-07T13:59:23;100592.66;;;1.08;87.23
65557;BME280;52200;53.490;14.376;2022-12-07T14:01:51;100594.19;;;0.96;86.44
65557;BME280;52200;53.490;14.376;2022-12-07T14:04:46;100593.44;;;1.04;86.87
65557;BME280;52200;53.490;14.376;2022-12-07T14:07:28;100602.50;;;0.94;86.65
65557;BME280;52200;53.490;14.376;2022-12-07T14:10:05;100606.69;;;0.95;86.28
65557;BME280;52200;53.490;14.376;2022-12-07T14:12:32;100609.97;;;0.89;87.53
65557;BME280;52200;53.490;14.376;2022-12-07T14:14:59;100612.69;;;1.08;87.43
65557;BME280;52200;53.490;14.376;2022-12-07T14:17:27;100611.94;;;1.18;87.26
65557;BME280;52200;53.490;14.376;2022-12-07T14:19:54;100610.38;;;1.28;86.95
65557;BME280;52200;53.490;14.376;2022-12-07T14:22:22;100608.72;;;1.30;86.78
65557;BME280;52200;53.490;14.376;2022-12-07T14:24:48;100614.63;;;1.37;87.07
65557;BME280;52200;53.490;14.376;2022-12-07T14:27:20;100605.31;;;1.22;87.18
65557;BME280;52200;53.490;14.376;2022-12-07T14:29:47;100609.44;;;1.21;87.05
65557;BME280;52200;53.490;14.376;2022-12-07T14:32:24;100607.00;;;1.27;87.15
65557;BME280;52200;53.490;14.376;2022-12-07T14:34:56;100618.63;;;1.19;87.97
65557;BME280;52200;53.490;14.376;2022-12-07T14:37:23;100601.91;;;1.17;87.57
65557;BME280;52200;53.490;14.376;2022-12-07T14:39:48;100602.66;;;1.08;87.52
65557;BME280;52200;53.490;14.376;2022-12-07T14:42:14;100604.31;;;1.07;88.29
65557;BME280;52200;53.490;14.376;2022-12-07T14:44:39;100596.16;;;1.27;88.14
65557;BME280;52200;53.490;14.376;2022-12-07T14:47:05;100604.50;;;1.26;87.94